createdAt,value
2023-03-10T00:02:08.803Z,55.92
2023-03-10T00:04:38.575Z,57.38
2023-03-10T00:07:08.345Z,56.80
2023-03-10T00:09:38.034Z,57.42
2023-03-10T00:12:08.139Z,58.42
2023-03-10T00:14:37.884Z,59.10
2023-03-10T00:17:08.170Z,57.97
2023-03-10T00:19:38.102Z,55.90
2023-03-10T00:22:08.224Z,63.95
2023-03-10T00:24:38.001Z,86.40
2023-03-10T00:27:07.888Z,60.40
2023-03-10T00:29:37.568Z,66.60
2023-03-10T00:32:07.800Z,63.33
2023-03-10T00:34:38.008Z,61.17
2023-03-10T00:37:07.760Z,59.95
2023-03-10T00:39:37.449Z,56.00
2023-03-10T00:42:07.150Z,57.95
2023-03-10T00:44:36.852Z,55.50
2023-03-10T00:47:06.517Z,54.65
2023-03-10T00:49:36.187Z,53.08
2023-03-10T00:52:06.067Z,53.22
2023-03-10T00:54:35.727Z,53.03
2023-03-10T00:57:06.200Z,56.33
2023-03-10T00:59:48.010Z,54.15
2023-03-10T01:02:21.577Z,50.78
2023-03-10T01:04:51.294Z,53.08
2023-03-10T01:07:20.933Z,56.63
2023-03-10T01:09:50.611Z,53.85
2023-03-10T01:12:20.307Z,54.75
2023-03-10T01:14:49.942Z,59.05
2023-03-10T01:17:19.614Z,55.95
2023-03-10T01:19:49.326Z,54.97
2023-03-10T01:22:18.936Z,56.60
2023-03-10T01:24:48.565Z,52.50
2023-03-10T01:27:18.345Z,53.67
2023-03-10T01:29:47.991Z,49.33
2023-03-10T01:32:20.300Z,44.22
2023-03-10T01:34:50.213Z,44.45
2023-03-10T01:37:20.545Z,41.53
2023-03-10T01:39:50.267Z,42.55
2023-03-10T01:42:19.853Z,44.33
2023-03-10T01:45:11.238Z,45.00
2023-03-10T01:47:40.847Z,42.67
2023-03-10T01:50:15.721Z,44.00
2023-03-10T01:52:48.670Z,44.28
2023-03-10T01:55:23.675Z,45.38
2023-03-10T01:57:56.531Z,43.28
2023-03-10T02:00:29.724Z,43.00
2023-03-10T02:03:11.681Z,43.22
2023-03-10T02:05:47.830Z,42.05
2023-03-10T02:08:18.867Z,42.70
2023-03-10T02:10:50.265Z,42.65
2023-03-10T02:13:20.134Z,39.35
2023-03-10T02:15:50.009Z,42.97
2023-03-10T02:18:22.157Z,41.33
2023-03-10T02:21:25.678Z,40.47
2023-03-10T02:24:14.494Z,38.50
2023-03-10T02:27:05.022Z,39.85
2023-03-10T02:29:58.009Z,38.80
2023-03-10T02:32:31.417Z,40.42
2023-03-10T02:35:01.995Z,40.22
2023-03-10T02:37:35.936Z,38.60
2023-03-10T02:40:07.174Z,38.58
2023-03-10T02:42:38.521Z,38.80
2023-03-10T02:45:08.916Z,39.13
2023-03-10T02:47:38.644Z,40.00
2023-03-10T02:50:10.182Z,40.38
2023-03-10T02:53:08.295Z,37.17
2023-03-10T02:55:37.895Z,37.47
2023-03-10T02:58:07.737Z,37.13
2023-03-10T03:00:40.584Z,38.92
2023-03-10T03:03:11.693Z,37.83
2023-03-10T03:05:41.848Z,38.22
2023-03-10T03:08:12.150Z,35.55
2023-03-10T03:10:42.375Z,37.15
2023-03-10T03:13:12.403Z,37.58
2023-03-10T03:15:42.043Z,36.53
2023-03-10T03:18:11.798Z,38.63
2023-03-10T03:20:42.962Z,36.65
2023-03-10T03:23:13.038Z,35.45
2023-03-10T03:25:44.319Z,36.83
2023-03-10T03:28:15.183Z,37.10
2023-03-10T03:30:48.366Z,36.00
2023-03-10T03:33:18.389Z,37.38
2023-03-10T03:35:48.906Z,37.25
2023-03-10T03:38:18.639Z,38.28
2023-03-10T03:40:48.508Z,37.35
2023-03-10T03:43:18.193Z,36.08
2023-03-10T03:45:47.857Z,36.22
2023-03-10T03:48:17.511Z,37.28
2023-03-10T03:50:47.209Z,36.13
2023-03-10T03:53:17.085Z,33.83
2023-03-10T03:55:46.788Z,34.00
2023-03-10T03:58:16.456Z,36.78
2023-03-10T04:00:46.298Z,34.78
2023-03-10T04:03:15.961Z,34.33
2023-03-10T04:05:47.229Z,36.47
2023-03-10T04:08:17.284Z,37.03
2023-03-10T04:10:56.554Z,36.13
2023-03-10T04:13:26.248Z,37.22
2023-03-10T04:16:02.377Z,35.25
2023-03-10T04:18:31.990Z,36.67
2023-03-10T04:21:01.695Z,34.08
2023-03-10T04:23:31.348Z,34.78
2023-03-10T04:26:00.968Z,35.15
2023-03-10T04:28:30.545Z,35.10
2023-03-10T04:31:00.236Z,36.35
2023-03-10T04:33:29.905Z,33.40
2023-03-10T04:36:04.690Z,35.15
2023-03-10T04:38:34.789Z,34.00
2023-03-10T04:41:04.904Z,33.90
2023-03-10T04:43:34.936Z,35.70
2023-03-10T04:46:04.582Z,33.60
2023-03-10T04:48:34.585Z,34.65
2023-03-10T04:51:07.226Z,34.22
2023-03-10T04:53:38.313Z,33.72
2023-03-10T04:56:10.154Z,33.08
2023-03-10T04:58:39.738Z,33.88
2023-03-10T05:01:14.167Z,33.97
2023-03-10T05:03:43.996Z,34.50
2023-03-10T05:06:17.031Z,34.22
2023-03-10T05:08:46.833Z,36.83
2023-03-10T05:11:16.692Z,34.67
2023-03-10T05:13:46.630Z,34.97
2023-03-10T05:16:24.116Z,35.38
2023-03-10T05:18:53.875Z,35.88
2023-03-10T05:21:23.975Z,36.97
2023-03-10T05:23:53.685Z,35.88
2023-03-10T05:26:23.474Z,35.53
2023-03-10T05:28:53.110Z,35.70
2023-03-10T05:31:27.988Z,34.97
2023-03-10T05:33:58.269Z,33.92
2023-03-10T05:36:28.625Z,33.80
2023-03-10T05:38:58.200Z,35.63
2023-03-10T05:41:27.929Z,34.80
2023-03-10T05:43:58.250Z,35.40
2023-03-10T05:46:28.155Z,34.20
2023-03-10T05:48:58.662Z,37.63
2023-03-10T05:51:28.237Z,36.20
2023-03-10T05:53:57.863Z,36.60
2023-03-10T05:56:27.811Z,33.72
2023-03-10T05:58:57.457Z,32.97
2023-03-10T06:01:27.094Z,33.88
2023-03-10T06:03:56.799Z,33.55
2023-03-10T06:06:26.472Z,31.85
2023-03-10T06:08:56.183Z,32.42
2023-03-10T06:11:26.095Z,30.02
2023-03-10T06:13:55.998Z,29.60
2023-03-10T06:16:25.588Z,30.13
2023-03-10T06:18:57.332Z,30.67
2023-03-10T06:21:27.803Z,32.58
2023-03-10T06:23:57.566Z,31.88
2023-03-10T06:26:27.368Z,31.90
2023-03-10T06:28:56.995Z,31.85
2023-03-10T06:31:27.014Z,33.45
2023-03-10T06:33:56.703Z,32.38
2023-03-10T06:36:28.402Z,34.78
2023-03-10T06:38:58.644Z,33.72
2023-03-10T06:41:29.725Z,31.38
2023-03-10T06:43:59.803Z,30.75
2023-03-10T06:46:30.593Z,29.25
2023-03-10T06:49:00.228Z,27.58
2023-03-10T06:51:29.977Z,28.35
2023-03-10T06:53:59.769Z,28.17
2023-03-10T06:56:29.417Z,30.27
2023-03-10T06:58:59.280Z,28.88
2023-03-10T07:01:32.055Z,29.63
2023-03-10T07:04:03.080Z,29.05
2023-03-10T07:06:33.017Z,29.77
2023-03-10T07:09:02.800Z,27.85
2023-03-10T07:11:32.669Z,26.40
2023-03-10T07:14:02.421Z,26.75
2023-03-10T07:16:32.169Z,27.63
2023-03-10T07:19:01.915Z,27.48
2023-03-10T07:21:31.581Z,28.27
2023-03-10T07:24:01.603Z,28.35
2023-03-10T07:26:31.585Z,28.50
2023-03-10T07:29:01.400Z,29.77
2023-03-10T07:31:31.962Z,29.20
2023-03-10T07:34:03.654Z,28.85
2023-03-10T07:36:33.401Z,28.95
2023-03-10T07:39:03.462Z,27.75
2023-03-10T07:41:33.202Z,29.42
2023-03-10T07:44:02.840Z,29.08
2023-03-10T07:46:32.613Z,28.23
2023-03-10T07:49:05.909Z,27.67
2023-03-10T07:51:35.834Z,28.45
2023-03-10T07:54:05.661Z,28.33
2023-03-10T07:56:35.378Z,29.02
2023-03-10T07:59:05.103Z,29.83
2023-03-10T08:01:34.744Z,28.70
2023-03-10T08:04:04.545Z,28.85
2023-03-10T08:06:35.674Z,28.35
2023-03-10T08:09:05.469Z,28.13
2023-03-10T08:11:35.516Z,29.98
2023-03-10T08:14:05.991Z,28.77
2023-03-10T08:16:35.720Z,28.10
2023-03-10T08:19:05.752Z,29.08
2023-03-10T08:21:35.458Z,29.48
2023-03-10T08:24:05.272Z,29.75
2023-03-10T08:26:35.479Z,27.27
2023-03-10T08:29:05.512Z,29.48
2023-03-10T08:31:35.318Z,28.83
2023-03-10T08:34:05.057Z,30.40
2023-03-10T08:36:35.286Z,30.48
2023-03-10T08:39:07.475Z,32.92
2023-03-10T08:41:50.604Z,32.80
2023-03-10T08:44:21.321Z,33.05
2023-03-10T08:46:52.386Z,33.40
2023-03-10T08:49:23.703Z,33.55
2023-03-10T08:51:53.519Z,33.28
2023-03-10T08:54:24.437Z,31.05
2023-03-10T08:56:54.413Z,32.08
2023-03-10T08:59:24.286Z,30.35
2023-03-10T09:01:54.106Z,30.88
2023-03-10T09:04:23.804Z,30.65
2023-03-10T09:06:53.514Z,30.45
2023-03-10T09:09:23.169Z,31.30
2023-03-10T09:11:52.776Z,31.58
2023-03-10T09:14:22.583Z,31.10
2023-03-10T09:16:52.294Z,32.35
2023-03-10T09:19:22.113Z,30.38
2023-03-10T09:21:51.929Z,31.02
2023-03-10T09:24:21.670Z,30.23
2023-03-10T09:26:51.311Z,29.90
2023-03-10T09:29:27.085Z,31.52
2023-03-10T09:32:08.533Z,33.38
2023-03-10T09:34:38.360Z,31.30
2023-03-10T09:37:08.710Z,30.77
2023-03-10T09:39:38.982Z,29.70
2023-03-10T09:42:47.869Z,30.30
2023-03-10T09:45:37.552Z,30.27
2023-03-10T09:48:34.703Z,29.52
2023-03-10T09:51:16.513Z,29.67
2023-03-10T09:54:11.333Z,29.65
2023-03-10T09:56:41.317Z,29.23
2023-03-10T09:59:19.631Z,29.23
2023-03-10T10:01:52.042Z,30.02
2023-03-10T10:04:41.098Z,27.58
2023-03-10T10:07:24.020Z,29.85
2023-03-10T10:10:26.396Z,29.67
2023-03-10T10:12:56.550Z,27.80
2023-03-10T10:15:28.925Z,28.58
2023-03-10T10:18:24.112Z,28.77
2023-03-10T10:21:18.036Z,30.60
2023-03-10T10:23:54.651Z,26.83
2023-03-10T10:26:28.036Z,27.02
2023-03-10T10:29:00.542Z,26.70
2023-03-10T10:31:35.831Z,28.33
2023-03-10T10:34:08.828Z,27.42
2023-03-10T10:36:50.235Z,28.10
2023-03-10T10:39:35.150Z,26.90
2023-03-10T10:42:26.441Z,26.75
2023-03-10T10:45:03.846Z,28.27
2023-03-10T10:47:51.959Z,27.02
2023-03-10T10:50:31.436Z,29.13
2023-03-10T10:53:23.400Z,27.67
2023-03-10T10:56:07.423Z,27.48
2023-03-10T10:58:39.500Z,26.88
2023-03-10T11:01:14.185Z,26.80
2023-03-10T11:03:47.910Z,28.83
2023-03-10T11:06:33.983Z,27.25
2023-03-10T11:09:25.164Z,28.48
2023-03-10T11:12:33.844Z,28.42
2023-03-10T11:15:34.983Z,28.83
2023-03-10T11:18:19.426Z,28.08
2023-03-10T11:21:13.194Z,29.33
2023-03-10T11:24:22.185Z,29.23
2023-03-10T11:27:20.536Z,28.42
2023-03-10T11:30:01.175Z,28.92
2023-03-10T11:32:58.631Z,29.98
2023-03-10T11:35:49.624Z,29.60
2023-03-10T11:38:36.312Z,31.73
2023-03-10T11:41:29.333Z,28.50
2023-03-10T11:44:23.052Z,30.88
2023-03-10T11:47:26.716Z,38.40
2023-03-10T11:50:05.935Z,32.50
2023-03-10T11:52:36.475Z,30.90
2023-03-10T11:55:19.792Z,33.25
2023-03-10T11:57:54.665Z,33.05
2023-03-10T12:00:34.629Z,31.15
2023-03-10T12:03:36.746Z,32.40
2023-03-10T12:06:16.801Z,33.65
2023-03-10T12:08:47.152Z,31.30
2023-03-10T12:11:21.501Z,31.63
2023-03-10T12:13:55.513Z,33.15
2023-03-10T12:16:29.197Z,31.73
2023-03-10T12:18:59.753Z,32.58
2023-03-10T12:21:32.628Z,31.88
2023-03-10T12:24:06.775Z,33.78
2023-03-10T12:27:00.230Z,32.65
2023-03-10T12:29:36.910Z,33.92
2023-03-10T12:32:07.333Z,32.30
2023-03-10T12:34:36.986Z,33.25
2023-03-10T12:37:10.159Z,52.60
2023-03-10T12:39:44.881Z,49.55
2023-03-10T12:42:37.862Z,51.72
2023-03-10T12:45:31.052Z,47.72
2023-03-10T12:48:18.561Z,45.95
2023-03-10T12:51:06.809Z,45.83
2023-03-10T12:53:50.256Z,50.75
2023-03-10T12:56:41.092Z,52.22
2023-03-10T12:59:34.901Z,51.78
2023-03-10T13:02:06.149Z,56.00
2023-03-10T13:04:36.858Z,63.25
2023-03-10T13:07:06.770Z,54.28
2023-03-10T13:09:44.693Z,52.78
2023-03-10T13:14:53.298Z,42.22
2023-03-10T13:17:27.225Z,43.50
2023-03-10T13:20:10.344Z,42.45
2023-03-10T13:22:40.149Z,46.45
2023-03-10T13:25:16.469Z,47.20
2023-03-10T13:27:46.152Z,48.55
2023-03-10T13:30:28.192Z,49.80
2023-03-10T13:33:04.216Z,49.28
2023-03-10T13:35:38.645Z,48.45
2023-03-10T13:38:22.998Z,49.35
2023-03-10T13:41:03.835Z,47.92
2023-03-10T13:43:50.319Z,46.75
2023-03-10T13:46:31.002Z,44.85
2023-03-10T13:49:08.003Z,44.47
2023-03-10T13:51:40.028Z,44.17
2023-03-10T13:54:30.726Z,42.45
2023-03-10T13:57:31.597Z,42.20
2023-03-10T14:00:03.571Z,40.88
2023-03-10T14:02:37.586Z,41.05
2023-03-10T14:05:09.024Z,41.10
2023-03-10T14:07:40.448Z,42.35
2023-03-10T14:10:17.271Z,41.55
2023-03-10T14:12:55.801Z,41.75
2023-03-10T14:15:32.105Z,41.50
2023-03-10T14:18:21.655Z,41.95
2023-03-10T14:20:51.380Z,41.72
2023-03-10T14:23:29.710Z,42.60
2023-03-10T14:26:00.388Z,39.92
2023-03-10T14:28:35.033Z,42.10
2023-03-10T14:31:06.326Z,41.63
2023-03-10T14:33:36.198Z,63.83
2023-03-10T14:36:07.710Z,65.15
2023-03-10T14:38:37.521Z,47.30
2023-03-10T14:41:07.974Z,45.30
2023-03-10T14:43:37.653Z,44.17
2023-03-10T14:46:07.888Z,46.50
2023-03-10T14:48:42.611Z,45.88
2023-03-10T14:51:32.573Z,44.78
2023-03-10T14:54:02.515Z,46.15
2023-03-10T14:56:33.848Z,46.97
2023-03-10T14:59:03.974Z,42.47
2023-03-10T15:01:33.821Z,45.78
2023-03-10T15:04:03.442Z,43.15
2023-03-10T15:06:33.076Z,43.78
2023-03-10T15:09:02.864Z,43.40
2023-03-10T15:11:37.334Z,43.95
2023-03-10T15:14:15.829Z,43.22
2023-03-10T15:16:45.795Z,42.05
2023-03-10T15:19:26.854Z,41.03
2023-03-10T15:21:56.839Z,43.22
2023-03-10T15:24:26.493Z,41.97
2023-03-10T15:26:56.150Z,43.72
2023-03-10T15:29:25.758Z,51.83
2023-03-10T15:31:55.423Z,46.25
2023-03-10T15:34:25.010Z,45.92
2023-03-10T15:36:54.615Z,44.28
2023-03-10T15:39:31.460Z,47.42
2023-03-10T15:42:01.582Z,47.40
2023-03-10T15:44:31.313Z,44.83
2023-03-10T15:47:01.378Z,44.90
2023-03-10T15:49:31.597Z,45.70
2023-03-10T15:52:01.404Z,44.20
2023-03-10T15:54:31.102Z,44.58
2023-03-10T15:57:00.849Z,43.75
2023-03-10T15:59:31.089Z,48.50
2023-03-10T16:02:00.839Z,43.90
2023-03-10T16:04:32.413Z,45.70
2023-03-10T16:07:07.452Z,44.72
2023-03-10T16:09:37.194Z,46.90
2023-03-10T16:12:07.238Z,47.33
2023-03-10T16:14:36.908Z,44.80
2023-03-10T16:17:06.682Z,44.83
2023-03-10T16:19:36.363Z,45.80
2023-03-10T16:22:06.021Z,46.13
2023-03-10T16:24:36.144Z,48.17
2023-03-10T16:27:06.076Z,47.53
2023-03-10T16:29:35.884Z,45.53
2023-03-10T16:32:05.629Z,47.45
2023-03-10T16:34:35.347Z,46.97
2023-03-10T16:37:05.104Z,46.08
2023-03-10T16:39:34.839Z,48.80
2023-03-10T16:42:05.940Z,49.75
2023-03-10T16:44:35.656Z,47.95
2023-03-10T16:47:05.936Z,50.00
2023-03-10T16:49:38.104Z,50.17
2023-03-10T16:52:14.171Z,50.97
2023-03-10T16:54:43.814Z,49.08
2023-03-10T16:57:13.956Z,52.67
2023-03-10T16:59:46.259Z,57.28
2023-03-10T17:02:19.205Z,58.65
2023-03-10T17:04:49.002Z,56.97
2023-03-10T17:07:18.686Z,52.63
2023-03-10T17:09:48.294Z,50.33
2023-03-10T17:12:18.007Z,52.00
2023-03-10T17:14:47.669Z,49.90
2023-03-10T17:17:17.254Z,53.08
2023-03-10T17:19:46.916Z,52.55
2023-03-10T17:22:16.478Z,55.15
2023-03-10T17:24:46.355Z,57.03
2023-03-10T17:27:16.068Z,53.63
2023-03-10T17:29:45.709Z,51.33
2023-03-10T17:32:15.746Z,51.35
2023-03-10T17:34:45.842Z,51.22
2023-03-10T17:37:15.542Z,53.05
2023-03-10T17:39:45.259Z,50.95
2023-03-10T17:42:14.929Z,50.35
2023-03-10T17:44:44.692Z,52.75
2023-03-10T17:47:14.584Z,51.85
2023-03-10T17:49:44.886Z,50.65
2023-03-10T17:52:14.525Z,51.85
2023-03-10T17:54:44.400Z,50.95
2023-03-10T17:57:14.072Z,52.80
2023-03-10T17:59:43.777Z,52.33
2023-03-10T18:02:14.949Z,51.60
2023-03-10T18:04:46.919Z,52.08
2023-03-10T18:07:16.538Z,51.67
2023-03-10T18:09:46.241Z,52.05
2023-03-10T18:12:15.840Z,51.35
2023-03-10T18:14:45.364Z,48.90
2023-03-10T18:17:15.056Z,52.90
2023-03-10T18:19:44.738Z,61.42
2023-03-10T18:22:15.373Z,56.40
2023-03-10T18:24:45.016Z,51.20
2023-03-10T18:27:14.851Z,51.50
2023-03-10T18:29:44.441Z,59.25
2023-03-10T18:32:14.188Z,50.97
2023-03-10T18:34:43.804Z,50.03
2023-03-10T18:37:13.663Z,52.00
2023-03-10T18:39:43.378Z,50.65
2023-03-10T18:42:14.301Z,50.20
2023-03-10T18:44:48.909Z,50.88
2023-03-10T18:47:18.788Z,54.13
2023-03-10T18:49:49.387Z,50.90
2023-03-10T18:52:19.150Z,49.00
2023-03-10T18:54:50.151Z,51.75
2023-03-10T18:57:19.733Z,52.50
2023-03-10T18:59:49.382Z,53.70
2023-03-10T19:02:19.007Z,55.97
2023-03-10T19:04:49.644Z,61.78
2023-03-10T19:07:22.145Z,64.82
2023-03-10T19:09:56.347Z,78.28
2023-03-10T19:12:26.600Z,65.88
2023-03-10T19:15:09.362Z,70.07
2023-03-10T19:17:41.283Z,75.43
2023-03-10T19:20:13.897Z,78.45
2023-03-10T19:22:44.122Z,56.60
2023-03-10T19:25:14.720Z,66.22
2023-03-10T19:27:44.352Z,62.78
2023-03-10T19:30:18.021Z,64.38
2023-03-10T19:32:47.982Z,65.72
2023-03-10T19:35:22.174Z,65.97
2023-03-10T19:37:51.949Z,64.20
2023-03-10T19:40:23.280Z,61.40
2023-03-10T19:42:52.968Z,58.97
2023-03-10T19:45:22.632Z,60.25
2023-03-10T19:47:54.015Z,60.63
2023-03-10T19:50:24.062Z,55.58
2023-03-10T19:52:53.817Z,56.13
2023-03-10T19:55:25.660Z,57.65
2023-03-10T19:57:57.736Z,55.00
2023-03-10T20:00:32.795Z,52.92
2023-03-10T20:03:02.430Z,52.85
2023-03-10T20:05:31.982Z,51.13
2023-03-10T20:08:02.762Z,53.08
2023-03-10T20:10:32.402Z,53.67
2023-03-10T20:13:02.040Z,54.83
2023-03-10T20:15:31.907Z,51.40
2023-03-10T20:18:02.696Z,52.15
2023-03-10T20:20:33.346Z,51.15
2023-03-10T20:23:02.985Z,53.92
2023-03-10T20:25:32.729Z,52.92
2023-03-10T20:28:02.473Z,53.25
2023-03-10T20:30:32.818Z,51.92
2023-03-10T20:33:03.158Z,52.13
2023-03-10T20:35:34.839Z,53.47
2023-03-10T20:38:04.562Z,55.20
2023-03-10T20:40:34.378Z,54.20
2023-03-10T20:43:04.050Z,56.55
2023-03-10T20:45:33.948Z,58.33
2023-03-10T20:48:04.039Z,57.53
2023-03-10T20:50:35.004Z,57.15
2023-03-10T20:53:05.263Z,61.65
2023-03-10T20:55:35.075Z,60.05
2023-03-10T20:58:04.772Z,60.90
2023-03-10T21:00:34.585Z,62.13
2023-03-10T21:03:05.982Z,62.75
2023-03-10T21:05:35.721Z,62.40
2023-03-10T21:08:05.477Z,62.08
2023-03-10T21:10:35.138Z,59.78
2023-03-10T21:13:04.897Z,58.85
2023-03-10T21:15:34.829Z,58.78
2023-03-10T21:18:04.447Z,60.33
2023-03-10T21:20:34.428Z,59.38
2023-03-10T21:23:04.190Z,59.13
2023-03-10T21:25:33.950Z,61.40
2023-03-10T21:28:03.686Z,58.38
2023-03-10T21:30:35.766Z,56.35
2023-03-10T21:33:07.209Z,58.10
2023-03-10T21:35:40.159Z,58.10
2023-03-10T21:38:09.828Z,58.05
2023-03-10T21:40:39.702Z,56.63
2023-03-10T21:43:09.428Z,56.50
2023-03-10T21:45:40.136Z,57.30
2023-03-10T21:48:10.180Z,59.05
2023-03-10T21:50:41.061Z,56.47
2023-03-10T21:53:11.013Z,58.80
2023-03-10T21:55:40.766Z,57.65
2023-03-10T21:58:10.463Z,60.28
2023-03-10T22:00:40.868Z,57.67
2023-03-10T22:03:10.483Z,56.00
2023-03-10T22:05:40.156Z,57.38
2023-03-10T22:08:10.015Z,57.95
2023-03-10T22:10:39.673Z,58.45
2023-03-10T22:13:09.262Z,58.10
2023-03-10T22:15:39.128Z,58.35
2023-03-10T22:18:08.987Z,58.78
2023-03-10T22:20:38.768Z,58.22
2023-03-10T22:23:09.555Z,58.75
2023-03-10T22:25:39.348Z,55.53
2023-03-10T22:28:09.025Z,57.85
2023-03-10T22:30:40.325Z,56.10
2023-03-10T22:33:10.111Z,55.25
2023-03-10T22:35:40.632Z,55.35
2023-03-10T22:38:10.353Z,56.22
2023-03-10T22:40:39.990Z,56.83
2023-03-10T22:43:09.643Z,57.70
2023-03-10T22:45:40.198Z,57.50
2023-03-10T22:48:10.026Z,58.10
2023-03-10T22:50:42.701Z,58.05
2023-03-10T22:53:17.428Z,58.75
2023-03-10T22:55:49.551Z,58.85
2023-03-10T22:58:19.364Z,60.67
2023-03-10T23:00:49.180Z,60.08
2023-03-10T23:03:18.986Z,57.65
2023-03-10T23:05:48.778Z,60.53
2023-03-10T23:08:18.623Z,57.92
2023-03-10T23:10:48.341Z,57.88
2023-03-10T23:13:19.192Z,56.90
2023-03-10T23:15:49.340Z,58.20
2023-03-10T23:18:19.174Z,59.30
2023-03-10T23:20:50.798Z,61.33
2023-03-10T23:23:20.525Z,57.58
2023-03-10T23:25:52.671Z,59.75
2023-03-10T23:28:23.386Z,60.67
2023-03-10T23:30:55.869Z,59.03
2023-03-10T23:33:26.576Z,60.50
2023-03-10T23:35:56.799Z,56.95
2023-03-10T23:38:28.114Z,58.58
2023-03-10T23:40:58.120Z,58.13
2023-03-10T23:43:27.770Z,92.72
2023-03-10T23:45:57.375Z,71.40
2023-03-10T23:48:27.058Z,62.83
2023-03-10T23:50:57.649Z,70.57
2023-03-10T23:53:30.148Z,66.43
2023-03-10T23:56:01.716Z,61.65
2023-03-10T23:58:31.368Z,66.57
